AirNav   TITAN Aviation Fuels
 
 569 users online  

1NA8 Preszler Airstrip
Braddock, North Dakota, USA

GOING TO BRADDOCK?


FAA INFORMATION EFFECTIVE 09 SEPTEMBER 2021

Location

FAA Identifier: 1NA8
Lat/Long: 46-41-25.9500N 100-05-43.3890W
46-41.432500N 100-05.723150W
46.6905417,-100.0953858
(estimated)
Elevation: 1795 ft. / 547 m (estimated)
Variation: 09E (1985)
From city: 8 miles N of BRADDOCK, ND
Time zone: UTC -5 (UTC -6 during Standard Time)
Zip code: 58560

Airport Operations

Airport use: Private use. Permission required prior to landing
Activation date: 12/1983
Control tower: no
ARTCC: MINNEAPOLIS CENTER
FSS: GRAND FORKS FLIGHT SERVICE STATION
Attendance: UNATNDD
Wind indicator: yes
Segmented circle: no

Nearby radio navigation aids

VOR radial/distance  VOR name  Freq  Var
BISr088/23.8BISMARCK VOR/DME116.5012E

Airport Services

Runway Information

Runway 8/26

Dimensions: 2250 x 80 ft. / 686 x 24 m
Surface: turf
RUNWAY 8  RUNWAY 26
Traffic pattern: leftleft
Obstructions: fencefence

Airport Ownership and Management from official FAA records

Ownership: Privately-owned
Owner: TERENCE PRESZLER
43800 102ND AVE SE
BRADDOCK, ND 58524
Phone 701-332-6620
Manager: JOEL PRESZLER
43800 102ND AVE SE
BRADDOCK, ND 58524
Phone (701) 332-6442

Airport Operational Statistics

Aircraft based on the field: 1
Single engine airplanes: 1
    

Additional Remarks

FOR CD CTC MINNEAPOLIS ARTCC AT 651-463-5588.

Instrument Procedures

There are no published instrument procedures at 1NA8.

Some nearby airports with instrument procedures:

KBIS - Bismarck Municipal Airport (27 nm W)
7L2 - Linton Municipal Airport (29 nm S)
Y19 - Mandan Regional Airport/Lawler Field (33 nm W)
46D - Carrington Municipal Airport (60 nm NE)
51D - Edgeley Municipal Airport (60 nm E)
 
Loc | Ops | Rwys | IFR | FBO | Links
Com | Nav | Svcs | Stats | Notes

Bismarck Aero Center
AirBoss

 
Area around 1NA8 (Preszler Airstrip)
 
Road maps at: MapQuest Bing Google
 
Aerial photo
No photo
 
Sectional chart

 
Airport distance calculator
Flying to Preszler Airstrip? Find the distance to fly.

From to 1NA8

Sunrise and sunset
Times for 20-Sep-2021
 Local
(UTC-5)
 Zulu
(UTC)
Morning civil twilight06:5511:55
Sunrise07:2612:26
Sunset19:4200:42
Evening civil twilight20:1201:12

Current date and time
Zulu (UTC)  20-Sep-2021 11:07:12
Local (UTC-5)  20-Sep-2021 06:07:12
 
METAR
KBIS 
27nm W 
201052Z AUTO 27005KT 10SM FEW055 OVC090 12/11 A2982 RMK AO2 SLP092 T01220106
K7L2 
29nm S 
201055Z AUTO 31006KT 10SM -RA SCT060 BKN070 OVC080 12/12 A2983 RMK AO2
KY19 
33nm W 
201055Z AUTO 27008KT 10SM FEW055 BKN070 OVC080 11/11 A2983 RMK AO2 PWINO
TAF
KBIS 
27nm W 
200731Z 2008/2106 33011KT P6SM -SHRA SCT045 OVC090 FM201000 33011KT P6SM SCT020 OVC080 FM201600 34013KT P6SM BKN120 FM202000 33015G22KT P6SM SCT150
NOTAMs
Click for the latest NOTAMs
NOTAMs are issued by the DoD/FAA and will open in a separate window not controlled by AirNav.

 

 
 

Would you like to see your business listed on this page?

 If your business provides an interesting product or service to pilots, flight crews, aircraft, or users of the Preszler Airstrip, you should consider listing it here.  To start the listing process, click on the button below
 
Add a business
 

Other Pages about Preszler Airstrip

Update a link
 
Copyright © AirNav, LLC. All rights reserved. Privacy Policy  Contact